Anderson, OR

11:13 PM PDT on October 30, 2014 (GMT -0700)
Hogan and Roberts | Change Station
CLOSE
Current Station
Personal Weather Station
Location: Gresham, OR
Elevation: 384 ft
Nearby Weather Stations

Elev 384 ft 45.49 °N, 122.42 °W | Updated 46 seconds ago

Rain
Rain
56.8 °F
Feels Like 56.8 °F
N
0.0
Wind Variable Wind from SE
Gusts 0.0 mph

Today
High -- | Low -- °F
--% Chance of Precip.
Yesterday
High -- | Low -- °F
Precip. -- in
7:46 AM 5:59 PM
First Quarter, 52% visible
Pressure 29.77 in
Visibility 9.0 miles
Clouds Few 1800 ft
Mostly Cloudy 5500 ft
Overcast 8000 ft
Dew Point 52 °F
Humidity 83%
Rainfall 0.71 in
Snow Depth Not available.
UV 0 out of 12
Pollen .40 out of 12
Air Quality Not available.
Flu Activity Not available.
SPECI KTTD 310607Z AUTO 09010KT 9SM -RA FEW018 BKN055 OVC080 13/12 A2977 RMK AO2 P0001 T01330122

More Conditions Fewer Conditions

Pressure 29.77 in
Visibility 9.0 miles
Clouds Few 1800 ft
Mostly Cloudy 5500 ft
Overcast 8000 ft
Dew Point 52 °F
Humidity 83%
Rainfall 0.71 in
Snow Depth Not available.
UV 0 out of 12
Pollen .40 out of 12
Air Quality Not available.
Flu Activity Not available.
SPECI KTTD 310607Z AUTO 09010KT 9SM -RA FEW018 BKN055 OVC080 13/12 A2977 RMK AO2 P0001 T01330122

More Conditions Fewer Conditions

10-Day Weather Forecast

Almanac

Astronomy

Oct. 30, 2014 Rise Set
Actual Time
Civil Twilight
Nautical Twilight
Astronomical Twilight
Moon
Length of Visible Light
Length of Day
Tomorrow will be .
, % of the Moon is Illuminated

Today's Extremes

State Highs State Lows

Community

WunderPhotos

Upload Photos

1,766,571 photos uploaded!

WunderBlogs® & News

Nearby

Air Quality

  Air Quality AQ Index Pollutant
Not available.

Snow Depth

Station Depth Elevation

Earthquake Activity

City Distance Mag. Time & Date
Minimum magnitude displayed is 2.5.

Coastal Water Temperatures

Place Temperature

Nearby Weather Stations